Latest Weather Observations for Loxton

IDS60801

Issued at 1:02 pm CST Monday 4 May 2015 (issued every 30 minutes, with the page automatically refreshed every 10 minutes)

About weather observations | Map of weather stations | Latest weather observations for SA | Other Formats
Station Details ID: 024024 Name: LOXTON RESEARCH CENTRE Lat: -34.44 Lon: 140.60 Height: 30.1 m
Data from the previous 72 hours. | See also: Recent months at Loxton
Date/Time
CST
Temp
°C
App
Temp
°C
Dew
Point
Rel
Hum
%
Delta-T
°C
Wind Press
QNH
hPa
Press
MSL
hPa
Rain
since 9 am
mm
Dir
 
Spd
km/h
Gust
km/h
Spd
kts
Gust
kts
04/01:00pm 25.8 20.1 2.6 22 11.3 N 22 35 12 19 1009.3 1009.3 0.0
04/12:30pm 25.5 20.2 3.0 23 11.0 N 20 32 11 17 1010.1 1010.1 0.0
04/12:00pm 24.0 18.1 3.9 27 9.9 N 24 32 13 17 1011.2 1011.2 0.0
04/11:30am 23.1 17.3 4.2 29 9.3 N 24 41 13 22 1012.1 1012.1 0.0
04/11:00am 22.6 17.7 4.9 31 8.8 N 20 30 11 16 1012.8 1012.8 0.0
04/10:30am 20.8 16.3 6.0 38 7.4 N 19 32 10 17 1013.2 1013.2 0.0
04/10:00am 19.9 16.7 6.9 43 6.6 N 13 22 7 12 1013.7 1013.7 0.0
04/09:30am 17.8 13.3 7.0 49 5.4 NNE 20 26 11 14 1014.1 1014.1 0.0
04/09:00am 16.4 11.9 7.1 54 4.6 NNE 20 28 11 15 1014.2 1014.2 0.0
04/08:30am 15.0 10.8 7.5 61 3.7 NNE 19 24 10 13 1014.4 1014.4 0.0
04/08:00am 13.3 10.3 7.8 69 2.7 NNE 13 20 7 11 1014.5 1014.5 0.0
04/07:30am 11.4 9.2 7.9 79 1.7 NNE 9 13 5 7 1014.7 1014.7 0.0
04/07:00am 9.4 6.7 7.5 88 0.9 NNE 11 15 6 8 1014.5 1014.5 0.0
04/06:30am 8.4 6.4 7.3 93 0.5 N 7 11 4 6 1015.0 1015.0 0.0
04/06:00am 5.3 4.1 4.6 95 0.3 CALM 0 0 0 0 1015.1 1015.1 0.0
04/05:30am 5.5 4.3 4.6 94 0.4 CALM 0 0 0 0 1015.1 1015.1 0.0
04/05:00am 5.9 4.8 5.0 94 0.4 CALM 0 0 0 0 1015.1 1015.1 0.0
04/04:30am 6.1 5.0 5.2 94 0.4 CALM 0 0 0 0 1015.3 1015.3 0.0
04/04:00am 6.2 5.1 5.3 94 0.4 CALM 0 0 0 0 1015.3 1015.3 0.0
04/03:30am 7.0 6.2 6.3 95 0.3 CALM 0 0 0 0 1015.4 1015.4 0.0
04/03:00am 7.0 4.9 5.9 93 0.5 ENE 6 9 3 5 1015.4 1015.4 0.0
04/02:30am 7.5 6.2 6.2 91 0.6 NE 2 9 1 5 1015.6 1015.6 0.0
04/02:00am 8.0 7.3 6.9 93 0.5 CALM 0 0 0 0 1015.7 1015.7 0.0
04/01:30am 8.7 6.9 7.2 90 0.7 ENE 6 7 3 4 1016.0 1016.0 0.0
04/01:00am 7.7 5.7 6.4 91 0.6 ENE 6 7 3 4 1016.4 1016.4 0.0
04/12:30am 8.5 6.7 7.2 91 0.6 E 6 7 3 4 1016.8 1016.8 0.0
04/12:00am 9.6 8.0 7.9 89 0.8 E 6 7 3 4 1017.0 1017.0 0.0
 
Date/Time
CST
Temp
°C
App
Temp
°C
Dew
Point
Rel
Hum
%
Delta-T
°C
Wind Press
QNH
hPa
Press
MSL
hPa
Rain
since 9 am
mm
Dir
 
Spd
km/h
Gust
km/h
Spd
kts
Gust
kts
03/11:30pm 9.8 9.3 7.9 88 0.9 CALM 0 0 0 0 1017.2 1017.2 0.0
03/11:00pm 9.7 9.3 8.3 91 0.7 CALM 0 0 0 0 1017.4 1017.4 0.0
03/10:30pm 9.7 9.1 7.6 87 1.0 CALM 0 0 0 0 1017.7 1017.7 0.0
03/10:00pm 9.3 8.8 7.8 90 0.7 CALM 0 4 0 2 1018.0 1018.0 0.0
03/09:30pm 9.3 7.9 7.4 88 0.9 SE 4 6 2 3 1018.2 1018.2 0.0
03/09:00pm 9.2 8.6 7.3 88 0.9 CALM 0 0 0 0 1018.2 1018.2 0.0
03/08:30pm 9.5 8.9 7.4 87 1.0 CALM 0 0 0 0 1018.2 1018.2 0.0
03/08:00pm 9.8 9.3 7.7 87 1.0 CALM 0 0 0 0 1018.3 1018.3 0.0
03/07:30pm 10.4 9.9 7.7 83 1.3 CALM 0 0 0 0 1018.1 1018.1 0.0
03/07:00pm 11.9 11.6 8.7 81 1.6 CALM 0 0 0 0 1018.0 1018.0 0.0
03/06:30pm 12.9 12.8 9.6 80 1.7 CALM 0 0 0 0 1017.8 1017.8 0.0
03/06:00pm 14.5 14.5 9.9 74 2.4 CALM 0 0 0 0 1017.9 1017.9 0.0
03/05:30pm 16.3 16.4 10.0 66 3.3 CALM 0 0 0 0 1017.7 1017.7 0.0
03/05:00pm 18.4 18.1 8.5 52 5.1 CALM 0 0 0 0 1017.6 1017.6 0.0
03/04:30pm 19.5 18.9 7.5 45 6.1 CALM 0 0 0 0 1017.6 1017.6 0.0
03/04:00pm 19.8 17.8 7.2 44 6.4 W 7 13 4 7 1017.8 1017.8 0.0
03/03:30pm 20.3 18.4 6.9 41 6.8 W 6 13 3 7 1018.0 1018.0 0.0
03/03:00pm 20.2 18.9 7.5 43 6.5 SSE 4 9 2 5 1018.1 1018.1 0.0
03/02:30pm 19.8 18.0 7.2 44 6.4 WSW 6 9 3 5 1018.4 1018.4 0.0
03/02:00pm 20.1 17.5 7.6 44 6.4 NW 11 15 6 8 1018.7 1018.7 0.0
03/01:30pm 18.2 17.9 8.7 54 4.9 CALM 0 0 0 0 1019.0 1019.0 0.0
03/01:00pm 18.5 16.6 8.9 53 5.0 SW 9 11 5 6 1019.4 1019.4 0.0
03/12:30pm 19.1 17.2 9.0 52 5.3 NNW 9 13 5 7 1019.6 1019.6 0.0
03/12:00pm 18.6 16.8 9.5 55 4.8 NNW 9 11 5 6 1020.3 1020.3 0.0
03/11:30am 17.7 16.5 10.2 61 4.0 W 7 11 4 6 1020.9 1020.9 0.0
03/11:00am 16.4 15.6 11.8 74 2.5 SW 7 11 4 6 1021.2 1021.2 0.0
03/10:30am 14.5 14.0 12.1 85 1.3 SSW 6 9 3 5 1021.5 1021.5 0.0
03/10:00am 12.9 13.5 12.0 94 0.5 CALM 0 0 0 0 1021.6 1021.6 0.0
03/09:30am 12.0 12.1 11.6 97 0.2 E 2 6 1 3 1021.7 1021.7 0.0
03/09:00am 11.1 10.3 10.9 99 0.1 ESE 6 9 3 5 1021.7 1021.7 0.0
03/08:30am 10.6 9.6 10.4 99 0.1 S 6 7 3 4 1021.7 1021.7 0.0
03/08:00am 9.9 8.7 9.5 97 0.2 WNW 6 7 3 4 1021.8 1021.8 0.0
03/07:30am 9.3 8.0 9.1 99 0.1 WNW 6 7 3 4 1021.4 1021.4 0.0
03/07:00am 9.3 9.1 8.9 97 0.2 CALM 0 0 0 0 1021.0 1021.0 0.0
03/06:30am 9.0 8.3 8.4 96 0.3 W 2 6 1 3 1020.8 1020.8 0.0
03/06:00am 7.3 5.0 5.5 88 0.8 W 7 9 4 5 1020.7 1020.7 0.0
03/05:30am 4.4 3.0 3.4 93 0.4 CALM 0 0 0 0 1020.3 1020.3 0.0
03/05:00am 4.7 3.3 3.5 92 0.5 CALM 0 6 0 3 1020.2 1020.2 0.0
03/04:30am 5.3 4.1 4.6 95 0.3 CALM 0 0 0 0 1019.7 1019.7 0.0
03/04:00am 4.8 3.4 3.6 92 0.5 CALM 0 0 0 0 1019.5 1019.5 0.0
03/03:30am 5.2 3.9 4.3 94 0.4 CALM 0 0 0 0 1019.3 1019.3 0.0
03/03:00am 5.8 4.7 4.9 94 0.4 CALM 0 0 0 0 1019.4 1019.4 0.0
03/02:30am 5.8 4.6 4.4 91 0.6 CALM 0 0 0 0 1019.6 1019.6 0.0
03/02:00am 6.6 5.5 5.0 89 0.7 CALM 0 0 0 0 1019.8 1019.8 0.0
03/01:30am 6.7 5.6 5.3 91 0.6 CALM 0 0 0 0 1019.8 1019.8 0.0
03/01:00am 7.5 6.7 6.4 93 0.5 CALM 0 0 0 0 1019.8 1019.8 0.0
03/12:30am 7.7 6.8 5.9 88 0.8 CALM 0 0 0 0 1019.7 1019.7 0.0
03/12:00am 9.3 7.2 6.5 83 1.3 SW 7 11 4 6 1019.5 1019.5 0.0
 
Date/Time
CST
Temp
°C
App
Temp
°C
Dew
Point
Rel
Hum
%
Delta-T
°C
Wind Press
QNH
hPa
Press
MSL
hPa
Rain
since 9 am
mm
Dir
 
Spd
km/h
Gust
km/h
Spd
kts
Gust
kts
02/11:30pm 11.4 9.6 7.9 79 1.7 WSW 7 9 4 5 1019.6 1019.6 0.0
02/11:00pm 12.0 9.7 7.4 73 2.2 SW 9 11 5 6 1019.9 1019.9 0.0
02/10:30pm 11.8 9.4 7.0 72 2.3 SW 9 11 5 6 1019.9 1019.9 0.0
02/10:00pm 12.4 10.0 7.0 69 2.6 SW 9 11 5 6 1019.9 1019.9 0.0
02/09:30pm 13.8 11.8 7.2 64 3.2 SW 7 11 4 6 1019.6 1019.6 0.0
02/09:00pm 14.1 12.1 6.9 62 3.5 WSW 7 11 4 6 1019.4 1019.4 0.0
02/08:30pm 14.5 12.1 6.9 60 3.7 SW 9 11 5 6 1019.0 1019.0 0.0
02/08:00pm 15.6 12.4 6.8 56 4.3 SW 13 22 7 12 1019.0 1019.0 0.0
02/07:30pm 16.9 13.7 7.0 52 4.9 SW 13 17 7 9 1018.5 1018.5 0.0
02/07:00pm 17.8 15.1 7.5 51 5.2 WSW 11 19 6 10 1018.4 1018.4 0.0
02/06:30pm 19.0 15.9 7.1 46 6.0 WSW 13 19 7 10 1018.0 1018.0 0.0
02/06:00pm 19.7 16.5 6.8 43 6.5 WSW 13 20 7 11 1017.7 1017.7 0.0
02/05:30pm 20.5 16.9 6.9 41 6.9 WSW 15 20 8 11 1017.4 1017.4 0.0
02/05:00pm 21.6 16.9 6.1 36 7.8 W 20 30 11 16 1017.2 1017.2 0.0
02/04:30pm 22.4 17.8 5.7 33 8.4 WSW 19 30 10 16 1016.9 1016.9 0.0
02/04:00pm 23.1 18.2 5.0 31 9.0 W 20 32 11 17 1016.7 1016.7 0.0
02/03:30pm 23.7 18.6 4.2 28 9.6 WSW 20 30 11 16 1016.4 1016.4 0.0
02/03:00pm 24.2 19.1 0.6 21 10.9 W 17 26 9 14 1016.3 1016.3 0.0
02/02:30pm 24.2 19.1 0.6 21 10.9 WNW 17 24 9 13 1016.5 1016.5 0.0
02/02:00pm 24.1 18.5 1.2 22 10.7 W 20 32 11 17 1016.5 1016.5 0.0
02/01:30pm 23.8 18.1 0.6 21 10.7 W 20 30 11 16 1016.8 1016.8 0.0
02/01:00pm 24.1 19.1 1.2 22 10.7 WNW 17 26 9 14 1017.0 1017.0 0.0
02/12:30pm 23.2 17.9 -0.3 21 10.6 W 17 26 9 14 1017.3 1017.3 0.0
02/12:00pm 23.1 17.4 -0.6 20 10.6 NW 19 32 10 17 1017.8 1017.8 0.0
02/11:30am 22.7 17.5 0.2 22 10.2 W 17 26 9 14 1018.3 1018.3 0.0
02/11:00am 22.4 18.0 2.5 27 9.4 NW 15 24 8 13 1018.7 1018.7 0.0
02/10:30am 21.7 16.7 1.5 26 9.3 W 17 24 9 13 1019.0 1019.0 0.0
02/10:00am 20.8 17.5 4.5 34 7.9 W 11 17 6 9 1019.1 1019.1 0.0
02/09:30am 18.7 17.3 9.6 55 4.8 NNW 7 11 4 6 1019.5 1019.5 0.0
02/09:00am 17.6 15.9 9.8 60 4.1 NNW 9 13 5 7 1019.4 1019.4 0.0
02/08:30am 16.6 14.9 9.9 64 3.5 NNW 9 13 5 7 1019.2 1019.2 0.0
02/08:00am 14.8 13.6 10.4 75 2.3 N 7 9 4 5 1019.0 1019.0 0.0
02/07:30am 11.6 11.6 9.8 89 0.9 CALM 0 0 0 0 1019.0 1019.0 0.0
02/07:00am 9.6 9.2 8.4 92 0.6 CALM 0 0 0 0 1018.7 1018.7 0.0
02/06:30am 9.7 9.3 8.3 91 0.7 CALM 0 0 0 0 1018.5 1018.5 0.0
02/06:00am 10.6 10.4 9.2 91 0.7 CALM 0 0 0 0 1018.3 1018.3 0.0
02/05:30am 12.4 12.5 10.1 86 1.2 CALM 0 0 0 0 1018.2 1018.2 0.0
02/05:00am 14.9 13.9 10.3 74 2.4 WNW 6 11 3 6 1017.9 1017.9 0.0
02/04:30am 15.1 14.1 10.3 73 2.5 NW 6 11 3 6 1018.1 1018.1 0.0
02/04:00am 14.9 13.3 10.3 74 2.4 NNW 9 15 5 8 1017.6 1017.6 0.0
02/03:30am 11.7 10.5 9.7 87 1.0 NW 6 7 3 4 1017.6 1017.6 0.0
02/03:00am 13.2 12.3 10.5 84 1.4 WNW 6 7 3 4 1018.2 1018.2 0.0
02/02:30am 14.5 13.6 10.5 77 2.1 N 6 9 3 5 1018.2 1018.2 0.0
02/02:00am 13.6 12.7 10.5 81 1.6 NNE 6 7 3 4 1018.3 1018.3 0.0
02/01:30am 12.5 11.3 10.4 87 1.1 NE 7 11 4 6 1018.3 1018.3 0.0
02/01:00am 12.0 12.1 10.2 89 0.9 CALM 0 0 0 0 1018.5 1018.5 0.0
02/12:30am 12.0 11.9 9.6 85 1.2 CALM 0 0 0 0 1018.6 1018.6 0.0
02/12:00am 12.6 12.7 10.1 85 1.3 CALM 0 0 0 0 1018.9 1018.9 0.0
 
Date/Time
CST
Temp
°C
App
Temp
°C
Dew
Point
Rel
Hum
%
Delta-T
°C
Wind Press
QNH
hPa
Press
MSL
hPa
Rain
since 9 am
mm
Dir
 
Spd
km/h
Gust
km/h
Spd
kts
Gust
kts
01/11:30pm 13.7 13.5 10.6 81 1.6 NW 2 6 1 3 1019.0 1019.0 0.0
01/11:00pm 15.6 14.6 10.3 70 2.8 N 6 9 3 5 1019.1 1019.1 0.0
01/10:30pm 15.0 13.8 10.4 74 2.4 N 7 9 4 5 1019.4 1019.4 0.0
01/10:00pm 13.2 12.2 10.3 82 1.5 ENE 6 7 3 4 1019.5 1019.5 0.0
01/09:30pm 13.8 12.1 9.9 77 2.0 ENE 9 9 5 5 1019.6 1019.6 0.0
01/09:00pm 15.6 14.5 10.0 69 2.9 N 6 7 3 4 1019.8 1019.8 0.0
01/08:30pm 14.0 14.1 10.1 77 2.0 CALM 0 4 0 2 1019.8 1019.8 0.0
01/08:00pm 13.6 11.9 9.9 78 1.9 NE 9 11 5 6 1019.9 1019.9 0.0
01/07:30pm 13.8 14.0 10.5 80 1.7 CALM 0 0 0 0 1020.2 1020.2 0.0
01/07:00pm 14.3 14.5 10.5 78 2.0 CALM 0 0 0 0 1020.3 1020.3 0.0
01/06:30pm 15.6 15.5 10.7 72 2.6 NNE 2 6 1 3 1020.3 1020.3 0.0
01/06:00pm 17.2 16.2 11.1 67 3.3 NNE 7 7 4 4 1020.0 1020.0 0.0
01/05:30pm 19.4 17.6 9.6 53 5.2 NE 9 13 5 7 1019.6 1019.6 0.0
01/05:00pm 21.2 18.2 9.1 46 6.4 NE 15 20 8 11 1019.8 1019.8 0.0
01/04:30pm 21.8 18.8 9.2 44 6.7 NNE 15 22 8 12 1020.1 1020.1 0.0
01/04:00pm 22.3 19.4 8.2 40 7.4 NNE 13 20 7 11 1020.3 1020.3 0.0
01/03:30pm 22.5 19.2 8.0 39 7.6 NNE 15 20 8 11 1020.4 1020.4 0.0
01/03:00pm 22.8 19.0 7.6 37 7.9 N 17 24 9 13 1020.6 1020.6 0.0
01/02:30pm 23.0 19.3 7.9 38 7.9 N 17 24 9 13 1020.7 1020.7 0.0
01/02:00pm 22.6 19.4 8.6 40 7.4 N 15 22 8 12 1020.7 1020.7 0.0
01/01:30pm 22.5 19.7 8.5 40 7.4 N 13 22 7 12 1020.9 1020.9 0.0

Other Formats:

Comma delimited format used in spreadsheet applications
http://www.bom.gov.au/fwo/IDS60801/IDS60801.94682.axf

JavaScript Object Notation format (JSON) in row-major order
http://www.bom.gov.au/fwo/IDS60801/IDS60801.94682.json